| time (UTC) | temp F | wind direction | speed MPH | gust MPH | rain 1hr in | rain 24hr in | rain mn in | humidity % | barometer mb |
| 20260902155038 | 58 | 203 | 1.0 | 2.0 | 0.01 | 0.46 | 0.45 | 96 | 1002.0 |
| 20260902154059 | 58 | 315 | 1.0 | 2.0 | 0.01 | 0.46 | 0.45 | 96 | 1002.0 |
| 20260902153019 | 58 | 0 | 0.0 | 2.0 | 0.02 | 0.46 | 0.45 | 95 | 1001.9 |
| 20260902152059 | 58 | 158 | 0.0 | 2.0 | 0.02 | 0.46 | 0.45 | 95 | 1001.9 |
| 20260902151018 | 58 | 68 | 1.0 | 4.0 | 0.02 | 0.45 | 0.44 | 95 | 1002.0 |
| 20260902150018 | 58 | 0 | 1.0 | 3.0 | 0.02 | 0.45 | 0.44 | 95 | 1002.0 |
| 20260902145018 | 58 | 113 | 4.0 | 7.0 | 0.03 | 0.45 | 0.44 | 96 | 1002.0 |
| 20260902144018 | 58 | 113 | 4.0 | 10.0 | 0.03 | 0.45 | 0.44 | 97 | 1002.1 |
| 20260902143019 | 58 | 90 | 2.0 | 5.0 | 0.02 | 0.44 | 0.43 | 97 | 1002.0 |
| 20260902142018 | 58 | 248 | 3.0 | 6.0 | 0.01 | 0.43 | 0.42 | 97 | 1002.0 |
| 20260902141018 | 58 | 23 | 4.0 | 6.0 | 0.02 | 0.43 | 0.42 | 97 | 1001.8 |
| 20260902140059 | 58 | 338 | 4.0 | 8.0 | 0.02 | 0.42 | 0.41 | 97 | 1001.7 |
| 20260902135019 | 58 | 338 | 2.0 | 4.0 | 0.06 | 0.42 | 0.41 | 97 | 1001.7 |
| 20260902134019 | 58 | 45 | 2.0 | 3.0 | 0.07 | 0.42 | 0.41 | 96 | 1002.0 |
| 20260902133018 | 58 | 134 | 0.0 | 0.0 | 0.07 | 0.42 | 0.41 | 96 | 1002.1 |
| 20260902132018 | 58 | 90 | 1.0 | 3.0 | 0.07 | 0.42 | 0.41 | 96 | 1002.1 |
| 20260902131018 | 58 | 90 | 2.0 | 3.0 | 0.07 | 0.41 | 0.40 | 96 | 1002.2 |
| 20260902130018 | 58 | 45 | 2.0 | 3.0 | 0.06 | 0.40 | 0.39 | 96 | 1002.3 |
| 20260902125019 | 58 | 45 | 2.0 | 4.0 | 0.02 | 0.36 | 0.35 | 96 | 1002.3 |
| 20260902124018 | 58 | 45 | 2.0 | 3.0 | 0.03 | 0.35 | 0.34 | 96 | 1002.3 |
| 20260902123058 | 58 | 23 | 1.0 | 3.0 | 0.07 | 0.35 | 0.34 | 96 | 1002.4 |
| 20260902122018 | 58 | 23 | 3.0 | 5.0 | 0.09 | 0.35 | 0.34 | 96 | 1002.4 |
| 20260902121018 | 58 | 23 | 3.0 | 4.0 | 0.09 | 0.34 | 0.33 | 96 | 1002.5 |
| 20260902120018 | 58 | 23 | 2.0 | 3.0 | 0.10 | 0.34 | 0.33 | 96 | 1002.7 |
| 20260902115018 | 58 | 90 | 2.0 | 7.0 | 0.10 | 0.34 | 0.33 | 96 | 1002.7 |
| 20260902114058 | 58 | 68 | 3.0 | 5.0 | 0.08 | 0.32 | 0.31 | 96 | 1003.0 |
| 20260902113018 | 58 | 113 | 3.0 | 7.0 | 0.03 | 0.27 | 0.26 | 96 | 1003.0 |
| 20260902112018 | 59 | 23 | 2.0 | 6.0 | 0.03 | 0.26 | 0.25 | 96 | 1002.9 |
| 20260902111043 | 59 | 0 | 2.0 | 4.0 | 0.02 | 0.25 | 0.24 | 96 | 1003.0 |
| 20260902110058 | 58 | 23 | 1.0 | 2.0 | 0.01 | 0.24 | 0.23 | 95 | 1003.0 |
| 20260902105018 | 59 | 113 | 2.0 | 6.0 | 0.02 | 0.24 | 0.23 | 96 | 1003.0 |
| 20260902104018 | 59 | 113 | 2.0 | 4.0 | 0.02 | 0.24 | 0.23 | 96 | 1003.1 |
| 20260902103018 | 58 | 135 | 2.0 | 3.0 | 0.02 | 0.24 | 0.23 | 96 | 1003.4 |
| 20260902102019 | 58 | 90 | 2.0 | 5.0 | 0.02 | 0.23 | 0.22 | 96 | 1003.4 |
| 20260902101018 | 58 | 68 | 2.0 | 5.0 | 0.02 | 0.23 | 0.22 | 96 | 1003.6 |
| 20260902100026 | 58 | 23 | 2.0 | 4.0 | 0.03 | 0.23 | 0.22 | 96 | 1003.7 |
| 20260902095017 | 58 | 23 | 2.0 | 3.0 | 0.04 | 0.22 | 0.21 | 95 | 1003.8 |
| 20260902094018 | 58 | 23 | 3.0 | 5.0 | 0.10 | 0.22 | 0.21 | 96 | 1003.7 |
| 20260902093017 | 58 | 45 | 3.0 | 5.0 | 0.13 | 0.22 | 0.21 | 95 | 1003.9 |
| 20260902092018 | 58 | 68 | 2.0 | 4.0 | 0.12 | 0.21 | 0.20 | 95 | 1004.0 |
| 20260902091020 | 59 | 0 | 2.0 | 3.0 | 0.13 | 0.21 | 0.20 | 95 | 1004.1 |
| 20260902090059 | 59 | 45 | 1.0 | 3.0 | 0.13 | 0.20 | 0.19 | 95 | 1004.3 |
| 20260902085020 | 59 | 135 | 2.0 | 4.0 | 0.11 | 0.17 | 0.16 | 95 | 1004.3 |
| 20260902084020 | 59 | 158 | 2.0 | 3.0 | 0.08 | 0.12 | 0.11 | 94 | 1004.2 |
| 20260902083059 | 59 | 68 | 2.0 | 3.0 | 0.05 | 0.09 | 0.08 | 94 | 1004.3 |
| 20260902082021 | 59 | 68 | 3.0 | 6.0 | 0.07 | 0.09 | 0.08 | 94 | 1004.4 |
| 20260902081021 | 59 | 90 | 5.0 | 7.0 | 0.07 | 0.08 | 0.07 | 94 | 1004.6 |
| 20260902080020 | 59 | 68 | 3.0 | 6.0 | 0.06 | 0.07 | 0.06 | 94 | 1004.6 |
| 20260902075020 | 59 | 68 | 2.0 | 5.0 | 0.05 | 0.05 | 0.04 | 93 | 1004.6 |
| 20260902074020 | 59 | 68 | 3.0 | 5.0 | 0.04 | 0.04 | 0.03 | 93 | 1004.7 |
| 20260902073019 | 59 | 45 | 1.0 | 4.0 | 0.03 | 0.03 | 0.02 | 93 | 1004.9 |
| 20260902072021 | 59 | 327 | 0.0 | 0.0 | 0.02 | 0.02 | 0.01 | 92 | 1004.9 |
| 20260902071019 | 59 | 45 | 0.0 | 1.0 | 0.01 | 0.01 | 0.00 | 92 | 1005.0 |
| 20260902070020 | 59 | 90 | 0.0 | 1.0 | 0.01 | 0.01 | 0.01 | 91 | 1005.1 |
| 20260902065019 | 59 | 113 | 1.0 | 3.0 | 0.00 | 0.00 | 0.00 | 91 | 1005.1 |
| 20260902064019 | 59 | 113 | 0.0 | 1.0 | 0.00 | 0.00 | 0.00 | 90 | 1005.3 |
| 20260902063018 | 60 | 90 | 1.0 | 3.0 | 0.00 | 0.00 | 0.00 | 89 | 1005.3 |
| 20260902062059 | 60 | 135 | 3.0 | 4.0 | 0.00 | 0.00 | 0.00 | 89 | 1005.3 |
| 20260902061019 | 60 | 158 | 6.0 | 10.0 | 0.00 | 0.00 | 0.00 | 88 | 1005.4 |
| 20260902060107 | 60 | 180 | 7.0 | 10.0 | 0.00 | 0.00 | 0.00 | 88 | 1005.5 |
| 20260902055019 | 60 | 180 | 7.0 | 12.0 | 0.00 | 0.00 | 0.00 | 87 | 1005.5 |
| 20260902054019 | 61 | 180 | 7.0 | 11.0 | 0.00 | 0.00 | 0.00 | 86 | 1005.6 |
| 20260902053018 | 61 | 135 | 5.0 | 7.0 | 0.00 | 0.00 | 0.00 | 84 | 1005.6 |
| 20260902052018 | 61 | 158 | 7.0 | 12.0 | 0.00 | 0.00 | 0.00 | 83 | 1005.6 |
| 20260902051018 | 61 | 158 | 6.0 | 10.0 | 0.00 | 0.00 | 0.00 | 82 | 1005.6 |
| 20260902050019 | 61 | 180 | 7.0 | 14.0 | 0.00 | 0.00 | 0.00 | 81 | 1005.6 |
| 20260902045018 | 61 | 180 | 10.0 | 15.0 | 0.00 | 0.00 | 0.00 | 81 | 1005.7 |
| 20260902044019 | 61 | 180 | 6.0 | 9.0 | 0.00 | 0.00 | 0.00 | 81 | 1005.7 |
| 20260902043022 | 62 | 180 | 7.0 | 11.0 | 0.00 | 0.00 | 0.00 | 81 | 1005.8 |
| 20260902042058 | 62 | 180 | 6.0 | 10.0 | 0.00 | 0.00 | 0.00 | 81 | 1005.8 |
| 20260902041058 | 62 | 180 | 7.0 | 11.0 | 0.00 | 0.00 | 0.00 | 80 | 1005.9 |
| 20260902040018 | 62 | 180 | 10.0 | 18.0 | 0.00 | 0.00 | 0.00 | 80 | 1005.8 |
| 20260902035058 | 62 | 180 | 9.0 | 14.0 | 0.00 | 0.00 | 0.00 | 80 | 1005.8 |
| 20260902034018 | 62 | 180 | 9.0 | 15.0 | 0.00 | 0.00 | 0.00 | 80 | 1005.9 |
| 20260902033018 | 62 | 180 | 10.0 | 16.0 | 0.00 | 0.00 | 0.00 | 80 | 1006.0 |
| 20260902032058 | 63 | 180 | 9.0 | 16.0 | 0.00 | 0.00 | 0.00 | 79 | 1006.0 |
| 20260902031018 | 63 | 180 | 10.0 | 15.0 | 0.00 | 0.00 | 0.00 | 77 | 1006.1 |
| 20260902030018 | 64 | 180 | 11.0 | 20.0 | 0.00 | 0.00 | 0.00 | 75 | 1006.0 |
| 20260902025018 | 64 | 180 | 8.0 | 15.0 | 0.00 | 0.00 | 0.00 | 74 | 1006.0 |
| 20260902024018 | 64 | 180 | 9.0 | 16.0 | 0.00 | 0.00 | 0.00 | 73 | 1006.2 |
| 20260902023018 | 64 | 180 | 10.0 | 17.0 | 0.00 | 0.00 | 0.00 | 71 | 1006.2 |
| 20260902022057 | 65 | 180 | 10.0 | 18.0 | 0.00 | 0.00 | 0.00 | 70 | 1006.2 |
| 20260902021018 | 65 | 180 | 9.0 | 15.0 | 0.00 | 0.00 | 0.00 | 68 | 1006.4 |
| 20260902020049 | 66 | 180 | 11.0 | 20.0 | 0.00 | 0.00 | 0.00 | 66 | 1006.6 |
| 20260902015058 | 66 | 180 | 11.0 | 17.0 | 0.00 | 0.00 | 0.00 | 65 | 1006.6 |
| 20260902014058 | 66 | 180 | 11.0 | 20.0 | 0.00 | 0.00 | 0.00 | 64 | 1006.6 |
| 20260902013057 | 67 | 180 | 11.0 | 21.0 | 0.00 | 0.00 | 0.00 | 63 | 1006.6 |
| 20260902012058 | 67 | 158 | 10.0 | 17.0 | 0.00 | 0.00 | 0.00 | 63 | 1006.6 |
| 20260902011058 | 67 | 180 | 11.0 | 18.0 | 0.00 | 0.00 | 0.00 | 62 | 1006.7 |
| 20260902010058 | 67 | 180 | 10.0 | 21.0 | 0.00 | 0.00 | 0.00 | 61 | 1006.7 |
| 20260902005032 | 68 | 180 | 11.0 | 20.0 | 0.00 | 0.00 | 0.00 | 61 | 1006.6 |
| 20260902004020 | 68 | 158 | 12.0 | 22.0 | 0.00 | 0.00 | 0.00 | 59 | 1006.3 |
| 20260902003018 | 69 | 180 | 11.0 | 17.0 | 0.00 | 0.00 | 0.00 | 57 | 1006.2 |
| 20260902002020 | 70 | 180 | 9.0 | 17.0 | 0.00 | 0.00 | 0.00 | 56 | 1006.2 |
| 20260902001019 | 70 | 180 | 11.0 | 16.0 | 0.00 | 0.00 | 0.00 | 55 | 1006.2 |
| 20260902000020 | 71 | 180 | 10.0 | 14.0 | 0.00 | 0.00 | 0.00 | 54 | 1006.1 |
| 20260901235020 | 71 | 225 | 9.0 | 15.0 | 0.00 | 0.00 | 0.00 | 54 | 1006.1 |
| 20260901234100 | 71 | 225 | 9.0 | 15.0 | 0.00 | 0.00 | 0.00 | 53 | 1006.1 |
| 20260901233020 | 72 | 225 | 10.0 | 17.0 | 0.00 | 0.00 | 0.00 | 52 | 1006.2 |
| 20260901232019 | 72 | 203 | 8.0 | 15.0 | 0.00 | 0.00 | 0.00 | 51 | 1006.2 |
| 20260901231035 | 72 | 180 | 9.0 | 19.0 | 0.00 | 0.00 | 0.00 | 51 | 1006.0 |
| 20260901230020 | 72 | 158 | 11.0 | 19.0 | 0.00 | 0.00 | 0.00 | 51 | 1006.1 |
| 20260901225020 | 73 | 158 | 9.0 | 16.0 | 0.00 | 0.00 | 0.00 | 50 | 1006.1 |
| 20260901224019 | 74 | 180 | 10.0 | 18.0 | 0.00 | 0.00 | 0.00 | 47 | 1006.1 |
| 20260901223040 | 76 | 180 | 10.0 | 16.0 | 0.00 | 0.00 | 0.00 | 46 | 1006.1 |
| 20260901222019 | 77 | 180 | 10.0 | 21.0 | 0.00 | 0.00 | 0.00 | 45 | 1006.1 |
| 20260901221020 | 77 | 180 | 8.0 | 15.0 | 0.00 | 0.00 | 0.00 | 45 | 1006.1 |
| 20260901220019 | 78 | 180 | 7.0 | 15.0 | 0.00 | 0.00 | 0.00 | 44 | 1006.2 |
| 20260901215020 | 77 | 180 | 11.0 | 18.0 | 0.00 | 0.00 | 0.00 | 45 | 1006.2 |
| 20260901214059 | 76 | 180 | 8.0 | 13.0 | 0.00 | 0.00 | 0.00 | 46 | 1006.2 |
| 20260901213059 | 75 | 180 | 9.0 | 18.0 | 0.00 | 0.00 | 0.00 | 47 | 1006.3 |
| 20260901212020 | 75 | 158 | 8.0 | 15.0 | 0.00 | 0.00 | 0.00 | 49 | 1006.3 |
| 20260901211059 | 74 | 180 | 12.0 | 20.0 | 0.00 | 0.00 | 0.00 | 48 | 1006.3 |
| 20260901210019 | 74 | 180 | 9.0 | 15.0 | 0.00 | 0.00 | 0.00 | 49 | 1006.4 |
| 20260901205020 | 76 | 180 | 11.0 | 18.0 | 0.00 | 0.00 | 0.00 | 47 | 1006.4 |
| 20260901204019 | 76 | 180 | 10.0 | 17.0 | 0.00 | 0.00 | 0.00 | 46 | 1006.5 |
| 20260901203019 | 76 | 180 | 8.0 | 16.0 | 0.00 | 0.00 | 0.00 | 48 | 1006.5 |
| 20260901202019 | 75 | 180 | 10.0 | 18.0 | 0.00 | 0.00 | 0.00 | 48 | 1006.5 |
| 20260901201021 | 75 | 180 | 10.0 | 15.0 | 0.00 | 0.00 | 0.00 | 49 | 1006.6 |
| 20260901200100 | 75 | 180 | 11.0 | 18.0 | 0.00 | 0.00 | 0.00 | 49 | 1006.7 |
| 20260901195139 | 74 | 180 | 11.0 | 19.0 | 0.00 | 0.00 | 0.00 | 51 | 1006.7 |
| 20260901194059 | 75 | 180 | 12.0 | 19.0 | 0.00 | 0.00 | 0.00 | 50 | 1006.6 |
| 20260901193059 | 75 | 180 | 11.0 | 16.0 | 0.00 | 0.00 | 0.00 | 50 | 1006.6 |
| 20260901192019 | 75 | 180 | 12.0 | 20.0 | 0.00 | 0.00 | 0.00 | 50 | 1006.6 |
| 20260901191019 | 75 | 180 | 10.0 | 15.0 | 0.00 | 0.00 | 0.00 | 51 | 1006.7 |
| 20260901190019 | 76 | 180 | 12.0 | 18.0 | 0.00 | 0.00 | 0.00 | 50 | 1006.7 |
| 20260901185019 | 77 | 180 | 10.0 | 16.0 | 0.00 | 0.00 | 0.00 | 50 | 1006.7 |
| 20260901184019 | 76 | 180 | 8.0 | 14.0 | 0.00 | 0.00 | 0.00 | 50 | 1006.7 |
| 20260901183019 | 76 | 180 | 6.0 | 12.0 | 0.00 | 0.00 | 0.00 | 53 | 1006.9 |
| 20260901182019 | 76 | 248 | 3.0 | 5.0 | 0.00 | 0.00 | 0.00 | 57 | 1007.0 |
| 20260901181058 | 75 | 225 | 3.0 | 6.0 | 0.00 | 0.00 | 0.00 | 58 | 1007.0 |
| 20260901180020 | 75 | 225 | 1.0 | 4.0 | 0.00 | 0.00 | 0.00 | 60 | 1007.1 |
| 20260901175019 | 74 | 315 | 1.0 | 4.0 | 0.00 | 0.00 | 0.00 | 61 | 1007.2 |
| 20260901174019 | 74 | 338 | 1.0 | 3.0 | 0.00 | 0.00 | 0.00 | 63 | 1007.2 |
| 20260901173019 | 73 | 315 | 2.0 | 5.0 | 0.00 | 0.00 | 0.00 | 65 | 1007.2 |
| 20260901172059 | 71 | 315 | 3.0 | 6.0 | 0.00 | 0.00 | 0.00 | 68 | 1007.2 |
| 20260901171019 | 70 | 315 | 3.0 | 5.0 | 0.00 | 0.00 | 0.00 | 70 | 1007.2 |
| 20260901170019 | 69 | 45 | 1.0 | 3.0 | 0.00 | 0.00 | 0.00 | 73 | 1007.3 |
| 20260901165018 | 67 | 338 | 1.0 | 3.0 | 0.00 | 0.00 | 0.00 | 76 | 1007.3 |
| 20260901164019 | 65 | 68 | 2.0 | 5.0 | 0.00 | 0.00 | 0.00 | 79 | 1007.6 |
| 20260901163019 | 64 | 90 | 2.0 | 5.0 | 0.00 | 0.00 | 0.00 | 83 | 1007.7 |
| 20260901162020 | 63 | 113 | 3.0 | 6.0 | 0.00 | 0.00 | 0.00 | 84 | 1007.7 |
| 20260901161019 | 62 | 68 | 2.0 | 6.0 | 0.00 | 0.00 | 0.00 | 86 | 1007.8 |
| 20260901160019 | 61 | 68 | 3.0 | 6.0 | 0.00 | 0.00 | 0.00 | 88 | 1007.8 |